Tenkaku — JM6537 — position and weather

sailwx.info

Track history (hours):
 
Tides and Currents Weather Stations Pressure Air Temp Water Temp Dewpoint Dewpoint Depression Visibility Wind Speed Wind Dir Waves Ship Positions

Tenkaku

Last reported at 2017-Dec-11 14:36 UTC. Time now 2017-Dec-13 20:55 UTC.
Position N 34°54' E 139°42'.

Length 80 m; draft 5 m.

Type: Cargo ship. MMSI: 431600647.

Date/timePositionNaut miles runAvg speedWind from/ knotsBaromVisibWave heightAir tempDewpointWater temp
2017-Dec-11 14:36N 34°54' E 139°42'1 8.6
2017-Dec-11 14:29N 34°55' E 139°42'4 8.7
2017-Dec-11 14:00N 34°59' E 139°43'4 8.2
2017-Dec-11 13:30N 35°03' E 139°44'4 7.9
2017-Dec-11 13:00N 35°07' E 139°45'4 8.7
2017-Dec-11 12:30N 35°11' E 139°46'510.1
2017-Dec-11 12:00N 35°16' E 139°46'510.9
2017-Dec-11 11:30N 35°21' E 139°43'5 9.7
2017-Dec-11 11:01N 35°26' E 139°45'510.1
2017-Dec-11 10:30N 35°29' E 139°50'510.0
2017-Dec-11 10:00N 35°34' E 139°51'1 2.1
2017-Dec-11 09:30N 35°35' E 139°51'0 0.0
2017-Dec-11 08:58N 35°35' E 139°51'0 0.0
2017-Dec-11 08:30N 35°35' E 139°51'0 0.0
2017-Dec-11 08:00N 35°35' E 139°51'0 0.0
2017-Dec-11 07:30N 35°35' E 139°51'0 0.0
2017-Dec-11 07:00N 35°35' E 139°51'0 0.0
2017-Dec-11 06:30N 35°35' E 139°51'0 0.0
2017-Dec-11 05:59N 35°35' E 139°51'0 0.0
2017-Dec-11 05:30N 35°35' E 139°51'0 0.0
2017-Dec-11 05:00N 35°35' E 139°51'0 0.0
2017-Dec-11 04:31N 35°35' E 139°51'3 5.7
2017-Dec-11 04:00N 35°37' E 139°49'1 0.6
2017-Dec-11 02:46N 35°38' E 139°50'0 0.0
2017-Dec-11 02:26N 35°38' E 139°50'0 0.0
2017-Dec-11 01:56N 35°38' E 139°50'0 0.0
2017-Dec-11 01:26N 35°38' E 139°50'0 0.0
2017-Dec-11 00:46N 35°38' E 139°50'0 0.0
2017-Dec-10 23:19N 35°38' E 139°50'0 0.0
2017-Dec-10 22:58N 35°38' E 139°50'0 0.0
2017-Dec-10 21:20N 35°38' E 139°50'0 0.0
2017-Dec-10 21:00N 35°38' E 139°50'2 2.9
2017-Dec-10 20:29N 35°36' E 139°50'2 4.6
2017-Dec-10 20:00N 35°34' E 139°51'1 1.9
2017-Dec-10 19:30N 35°34' E 139°52'5 9.7
2017-Dec-10 19:00N 35°29' E 139°51'611.5
2017-Dec-10 18:30N 35°25' E 139°47'611.3
2017-Dec-10 18:00N 35°19' E 139°44'510.3
2017-Dec-10 17:30N 35°15' E 139°47'611.2
2017-Dec-10 17:00N 35°09' E 139°46'611.8
2017-Dec-10 16:30N 35°03' E 139°45'510.3
2017-Dec-10 16:00N 34°58' E 139°43'5 9.3
2017-Dec-10 15:27N 34°54' E 139°47'13 8.1
2017-Dec-10 13:53N 34°56' E 140°02'4 8.5
2017-Dec-10 13:23N 34°58' E 140°06'394 8.7
2017-Dec-08 16:17N 41°26' E 141°31'513.1
2017-Dec-08 15:53N 41°31' E 141°30'513.3
2017-Dec-08 15:30N 41°36' E 141°27'612.6
2017-Dec-08 15:00N 41°41' E 141°22'612.6
2017-Dec-08 14:30N 41°46' E 141°18'8 0.7
2017-Dec-08 03:33N 41°53' E 141°13'110.1
2017-Dec-08 03:28N 41°52' E 141°14'5 9.8
2017-Dec-08 03:00N 41°48' E 141°17'5 9.4
2017-Dec-08 02:30N 41°44' E 141°19'5 9.8
2017-Dec-08 01:57N 41°40' E 141°23'8 9.6
2017-Dec-08 01:07N 41°32' E 141°28'1 8.0
2017-Dec-08 00:58N 41°31' E 141°29'4 8.4
2017-Dec-08 00:29N 41°28' E 141°32'  
2017-Dec-04 09:57N 33°53' E 132°08'0 0.2
2017-Dec-04 09:22N 33°53' E 132°08'0 0.1
2017-Dec-04 03:29N 33°53' E 132°08'0 0.0
2017-Dec-04 02:04N 33°53' E 132°08'0 1.0
2017-Dec-04 01:55N 33°53' E 132°08'1 1.4
2017-Dec-04 01:20N 33°53' E 132°09'1 0.7
2017-Dec-03 23:57N 33°53' E 132°08'0 0.0
2017-Dec-03 23:11N 33°53' E 132°08'0 0.0
2017-Dec-03 02:23N 33°53' E 132°08'0 0.0
2017-Dec-03 01:56N 33°53' E 132°08'0 0.0
2017-Dec-03 00:49N 33°53' E 132°08'0 0.0
2017-Dec-03 00:30N 33°53' E 132°08'  
Track history (hours):
 
Tides and Currents Weather Stations Pressure Air Temp Water Temp Dewpoint Dewpoint Depression Visibility Wind Speed Wind Dir Waves Ship Positions

Tenkaku

Last reported at 2017-Dec-11 14:36 UTC. Time now 2017-Dec-13 20:55 UTC.
Position N 34°54' E 139°42'.

Length 80 m; draft 5 m.

Type: Cargo ship. MMSI: 431600647.

Date/timePositionNaut miles runAvg speedWind from/ knotsBaromVisibWave heightAir tempDewpointWater temp
2017-Dec-11 14:36N 34°54' E 139°42'1 8.6
2017-Dec-11 14:29N 34°55' E 139°42'4 8.7
2017-Dec-11 14:00N 34°59' E 139°43'4 8.2
2017-Dec-11 13:30N 35°03' E 139°44'4 7.9
2017-Dec-11 13:00N 35°07' E 139°45'4 8.7
2017-Dec-11 12:30N 35°11' E 139°46'510.1
2017-Dec-11 12:00N 35°16' E 139°46'510.9
2017-Dec-11 11:30N 35°21' E 139°43'5 9.7
2017-Dec-11 11:01N 35°26' E 139°45'510.1
2017-Dec-11 10:30N 35°29' E 139°50'510.0
2017-Dec-11 10:00N 35°34' E 139°51'1 2.1
2017-Dec-11 09:30N 35°35' E 139°51'0 0.0
2017-Dec-11 08:58N 35°35' E 139°51'0 0.0
2017-Dec-11 08:30N 35°35' E 139°51'0 0.0
2017-Dec-11 08:00N 35°35' E 139°51'0 0.0
2017-Dec-11 07:30N 35°35' E 139°51'0 0.0
2017-Dec-11 07:00N 35°35' E 139°51'0 0.0
2017-Dec-11 06:30N 35°35' E 139°51'0 0.0
2017-Dec-11 05:59N 35°35' E 139°51'0 0.0
2017-Dec-11 05:30N 35°35' E 139°51'0 0.0
2017-Dec-11 05:00N 35°35' E 139°51'0 0.0
2017-Dec-11 04:31N 35°35' E 139°51'3 5.7
2017-Dec-11 04:00N 35°37' E 139°49'1 0.6
2017-Dec-11 02:46N 35°38' E 139°50'0 0.0
2017-Dec-11 02:26N 35°38' E 139°50'0 0.0
2017-Dec-11 01:56N 35°38' E 139°50'0 0.0
2017-Dec-11 01:26N 35°38' E 139°50'0 0.0
2017-Dec-11 00:46N 35°38' E 139°50'0 0.0
2017-Dec-10 23:19N 35°38' E 139°50'0 0.0
2017-Dec-10 22:58N 35°38' E 139°50'0 0.0
2017-Dec-10 21:20N 35°38' E 139°50'0 0.0
2017-Dec-10 21:00N 35°38' E 139°50'2 2.9
2017-Dec-10 20:29N 35°36' E 139°50'2 4.6
2017-Dec-10 20:00N 35°34' E 139°51'1 1.9
2017-Dec-10 19:30N 35°34' E 139°52'5 9.7
2017-Dec-10 19:00N 35°29' E 139°51'611.5
2017-Dec-10 18:30N 35°25' E 139°47'611.3
2017-Dec-10 18:00N 35°19' E 139°44'510.3
2017-Dec-10 17:30N 35°15' E 139°47'611.2
2017-Dec-10 17:00N 35°09' E 139°46'611.8
2017-Dec-10 16:30N 35°03' E 139°45'510.3
2017-Dec-10 16:00N 34°58' E 139°43'5 9.3
2017-Dec-10 15:27N 34°54' E 139°47'13 8.1
2017-Dec-10 13:53N 34°56' E 140°02'4 8.5
2017-Dec-10 13:23N 34°58' E 140°06'394 8.7
2017-Dec-08 16:17N 41°26' E 141°31'513.1
2017-Dec-08 15:53N 41°31' E 141°30'513.3
2017-Dec-08 15:30N 41°36' E 141°27'612.6
2017-Dec-08 15:00N 41°41' E 141°22'612.6
2017-Dec-08 14:30N 41°46' E 141°18'8 0.7
2017-Dec-08 03:33N 41°53' E 141°13'110.1
2017-Dec-08 03:28N 41°52' E 141°14'5 9.8
2017-Dec-08 03:00N 41°48' E 141°17'5 9.4
2017-Dec-08 02:30N 41°44' E 141°19'5 9.8
2017-Dec-08 01:57N 41°40' E 141°23'8 9.6
2017-Dec-08 01:07N 41°32' E 141°28'1 8.0
2017-Dec-08 00:58N 41°31' E 141°29'4 8.4
2017-Dec-08 00:29N 41°28' E 141°32'  
2017-Dec-04 09:57N 33°53' E 132°08'0 0.2
2017-Dec-04 09:22N 33°53' E 132°08'0 0.1
2017-Dec-04 03:29N 33°53' E 132°08'0 0.0
2017-Dec-04 02:04N 33°53' E 132°08'0 1.0
2017-Dec-04 01:55N 33°53' E 132°08'1 1.4
2017-Dec-04 01:20N 33°53' E 132°09'1 0.7
2017-Dec-03 23:57N 33°53' E 132°08'0 0.0
2017-Dec-03 23:11N 33°53' E 132°08'0 0.0
2017-Dec-03 02:23N 33°53' E 132°08'0 0.0
2017-Dec-03 01:56N 33°53' E 132°08'0 0.0
2017-Dec-03 00:49N 33°53' E 132°08'0 0.0
2017-Dec-03 00:30N 33°53' E 132°08'  

Dump ship's entire track history